createdAt,value
2018-02-10T00:01:50.959Z,4.00
2018-02-10T00:04:18.415Z,3.90
2018-02-10T00:06:45.859Z,3.80
2018-02-10T00:09:14.083Z,3.60
2018-02-10T00:11:41.588Z,3.60
2018-02-10T00:14:08.995Z,3.70
2018-02-10T00:16:36.423Z,3.70
2018-02-10T00:19:03.863Z,3.40
2018-02-10T00:21:32.074Z,3.20
2018-02-10T00:23:59.599Z,3.10
2018-02-10T00:26:27.045Z,3.10
2018-02-10T00:28:54.474Z,3.10
2018-02-10T00:31:21.919Z,2.90
2018-02-10T00:33:49.375Z,2.70
2018-02-10T00:36:16.813Z,2.70
2018-02-10T00:38:44.269Z,2.60
2018-02-10T00:41:11.697Z,2.50
2018-02-10T00:43:39.143Z,2.50
2018-02-10T00:46:07.354Z,2.30
2018-02-10T00:48:34.791Z,2.20
2018-02-10T00:51:02.243Z,2.20
2018-02-10T00:53:29.691Z,2.10
2018-02-10T00:55:57.140Z,2.00
2018-02-10T00:58:24.600Z,2.10
2018-02-10T01:00:52.057Z,2.10
2018-02-10T01:03:19.563Z,2.00
2018-02-10T01:05:47.012Z,2.10
2018-02-10T01:08:14.461Z,2.10
2018-02-10T01:10:41.887Z,2.00
2018-02-10T01:13:10.104Z,2.10
2018-02-10T01:15:37.561Z,2.10
2018-02-10T01:18:05.023Z,2.00
2018-02-10T01:20:32.459Z,2.00
2018-02-10T01:23:00.040Z,2.10
2018-02-10T01:25:27.457Z,2.10
2018-02-10T01:27:54.911Z,2.30
2018-02-10T01:30:23.114Z,2.20
2018-02-10T01:32:50.581Z,2.20
2018-02-10T01:35:18.015Z,2.10
2018-02-10T01:37:45.475Z,2.10
2018-02-10T01:40:12.912Z,2.10
2018-02-10T01:42:40.384Z,2.10
2018-02-10T01:45:07.831Z,2.00
2018-02-10T01:47:35.280Z,2.00
2018-02-10T01:50:15.167Z,1.80
2018-02-10T01:52:42.794Z,1.70
2018-02-10T01:55:10.245Z,1.80
2018-02-10T01:57:38.465Z,1.80
2018-02-10T02:00:05.903Z,1.70
2018-02-10T02:02:33.351Z,1.70
2018-02-10T02:05:00.779Z,1.60
2018-02-10T02:07:28.274Z,1.60
2018-02-10T02:09:55.710Z,1.50
2018-02-10T02:12:23.930Z,1.40
2018-02-10T02:14:51.454Z,1.40
2018-02-10T02:17:18.904Z,1.40
2018-02-10T02:19:46.337Z,1.40
2018-02-10T02:22:13.792Z,1.50
2018-02-10T02:24:41.239Z,1.50
2018-02-10T02:27:08.715Z,1.60
2018-02-10T02:29:36.143Z,1.60
2018-02-10T02:32:03.606Z,1.60
2018-02-10T02:34:31.075Z,1.60
2018-02-10T02:36:58.522Z,1.50
2018-02-10T02:39:25.953Z,1.50
2018-02-10T02:41:53.411Z,1.40
2018-02-10T02:44:20.847Z,1.40
2018-02-10T02:46:48.300Z,1.30
2018-02-10T02:49:15.764Z,1.30
2018-02-10T02:51:43.200Z,1.30
2018-02-10T02:54:10.667Z,1.30
2018-02-10T02:56:38.240Z,1.40
2018-02-10T02:59:05.683Z,1.40
2018-02-10T03:01:33.122Z,1.40
2018-02-10T03:04:00.577Z,1.50
2018-02-10T03:06:28.028Z,1.60
2018-02-10T03:08:55.486Z,1.80
2018-02-10T03:11:22.932Z,2.00
2018-02-10T03:13:50.370Z,2.20
2018-02-10T03:16:17.825Z,2.20
2018-02-10T03:18:46.250Z,2.30
2018-02-10T03:21:13.695Z,2.40
2018-02-10T03:23:41.139Z,2.40
2018-02-10T03:26:08.590Z,2.30
2018-02-10T03:28:36.030Z,2.40
2018-02-10T03:31:03.489Z,2.50
2018-02-10T03:33:30.932Z,2.30
2018-02-10T03:35:58.375Z,2.30
2018-02-10T03:38:25.815Z,2.40
2018-02-10T03:40:53.367Z,2.40
2018-02-10T03:43:20.822Z,2.30
2018-02-10T03:45:48.256Z,2.20
2018-02-10T03:48:15.699Z,2.30
2018-02-10T03:50:43.155Z,2.50
2018-02-10T03:53:10.616Z,2.50
2018-02-10T03:55:38.056Z,2.60
2018-02-10T03:58:05.786Z,2.70
2018-02-10T04:00:33.227Z,2.90
2018-02-10T04:03:01.467Z,2.90
2018-02-10T04:05:28.901Z,2.80
2018-02-10T04:07:56.335Z,2.90
2018-02-10T04:10:23.810Z,2.90
2018-02-10T04:12:51.247Z,3.10
2018-02-10T04:15:18.710Z,3.10
2018-02-10T04:17:46.140Z,3.10
2018-02-10T04:20:13.598Z,2.90
2018-02-10T04:22:41.037Z,3.00
2018-02-10T04:25:08.533Z,2.90
2018-02-10T04:27:35.970Z,2.90
2018-02-10T04:30:03.429Z,2.90
2018-02-10T04:32:30.851Z,2.80
2018-02-10T04:34:58.311Z,2.80
2018-02-10T04:37:25.758Z,2.80
2018-02-10T04:39:53.215Z,2.80
2018-02-10T04:42:20.664Z,2.70
2018-02-10T04:44:48.092Z,2.50
2018-02-10T04:47:15.689Z,2.50
2018-02-10T04:49:43.134Z,2.60
2018-02-10T04:52:10.590Z,2.50
2018-02-10T04:54:38.059Z,2.50
2018-02-10T04:57:05.503Z,2.50
2018-02-10T04:59:32.939Z,2.50
2018-02-10T05:02:00.399Z,2.60
2018-02-10T05:04:27.855Z,2.60
2018-02-10T05:06:55.291Z,2.50
2018-02-10T05:09:23.684Z,2.60
2018-02-10T05:11:51.120Z,2.60
2018-02-10T05:14:18.587Z,2.50
2018-02-10T05:16:46.019Z,2.70
2018-02-10T05:19:13.445Z,2.60
2018-02-10T05:21:40.891Z,2.70
2018-02-10T05:24:08.344Z,2.80
2018-02-10T05:26:35.792Z,2.90
2018-02-10T05:29:03.252Z,2.80
2018-02-10T05:31:30.786Z,3.00
2018-02-10T05:33:58.224Z,2.90
2018-02-10T05:36:25.671Z,2.90
2018-02-10T05:38:53.107Z,3.00
2018-02-10T05:41:20.563Z,3.00
2018-02-10T05:43:48.019Z,3.20
2018-02-10T05:46:15.470Z,3.20
2018-02-10T05:48:42.911Z,3.30
2018-02-10T05:51:10.355Z,3.20
2018-02-10T05:53:37.907Z,3.20
2018-02-10T05:56:05.339Z,3.30
2018-02-10T05:58:32.790Z,3.40
2018-02-10T06:01:00.215Z,3.40
2018-02-10T06:03:27.665Z,3.40
2018-02-10T06:05:55.098Z,3.30
2018-02-10T06:08:22.547Z,3.40
2018-02-10T06:10:49.990Z,3.40
2018-02-10T06:13:18.215Z,3.40
2018-02-10T06:15:45.662Z,3.40
2018-02-10T06:18:13.140Z,3.50
2018-02-10T06:20:40.635Z,3.50
2018-02-10T06:23:08.051Z,3.50
2018-02-10T06:25:35.494Z,3.40
2018-02-10T06:28:02.952Z,3.40
2018-02-10T06:30:30.386Z,3.40
2018-02-10T06:32:57.840Z,3.20
2018-02-10T06:35:25.274Z,3.30
2018-02-10T06:37:52.727Z,3.30
2018-02-10T06:40:20.151Z,3.30
2018-02-10T06:42:47.599Z,3.40
2018-02-10T06:45:15.039Z,3.40
2018-02-10T06:47:42.502Z,3.40
2018-02-10T06:50:09.928Z,3.40
2018-02-10T06:52:38.137Z,3.30
2018-02-10T06:55:05.594Z,3.30
2018-02-10T06:57:33.026Z,3.20
2018-02-10T07:00:00.462Z,3.30
2018-02-10T07:02:27.919Z,3.40
2018-02-10T07:04:55.347Z,3.50
2018-02-10T07:07:22.782Z,3.40
2018-02-10T07:09:50.235Z,3.30
2018-02-10T07:12:17.675Z,3.30
2018-02-10T07:14:45.127Z,3.30
2018-02-10T07:17:12.558Z,3.30
2018-02-10T07:19:40.771Z,3.40
2018-02-10T07:22:08.219Z,3.30
2018-02-10T07:24:35.695Z,3.40
2018-02-10T07:27:03.159Z,3.40
2018-02-10T07:29:30.591Z,3.10
2018-02-10T07:31:58.051Z,3.10
2018-02-10T07:34:25.475Z,3.20
2018-02-10T07:36:52.915Z,3.30
2018-02-10T07:39:20.354Z,3.30
2018-02-10T07:41:47.856Z,3.10
2018-02-10T07:44:15.326Z,3.20
2018-02-10T07:46:42.738Z,3.30
2018-02-10T07:49:10.194Z,3.50
2018-02-10T07:51:37.633Z,3.50
2018-02-10T07:54:05.091Z,3.30
2018-02-10T07:56:32.536Z,3.30
2018-02-10T07:58:59.998Z,3.30
2018-02-10T08:01:27.454Z,3.30
2018-02-10T08:03:54.955Z,3.40
2018-02-10T08:06:22.391Z,3.50
2018-02-10T08:08:49.847Z,3.50
2018-02-10T08:11:17.279Z,3.60
2018-02-10T08:13:44.736Z,3.60
2018-02-10T08:16:12.177Z,3.10
2018-02-10T08:18:39.632Z,3.20
2018-02-10T08:21:07.090Z,3.30
2018-02-10T08:23:34.543Z,3.40
2018-02-10T08:26:02.084Z,3.60
2018-02-10T08:28:29.528Z,3.50
2018-02-10T08:30:56.994Z,3.80
2018-02-10T08:33:24.422Z,3.70
2018-02-10T08:35:51.855Z,4.00
2018-02-10T08:38:19.308Z,4.10
2018-02-10T08:40:46.765Z,4.20
2018-02-10T08:43:14.209Z,4.20
2018-02-10T08:45:41.649Z,4.20
2018-02-10T08:48:09.211Z,4.20
2018-02-10T08:50:36.676Z,4.00
2018-02-10T08:53:04.110Z,4.20
2018-02-10T08:55:32.312Z,4.60
2018-02-10T08:57:59.754Z,4.50
2018-02-10T09:00:27.209Z,4.80
2018-02-10T09:02:55.403Z,5.00
2018-02-10T09:05:22.860Z,4.90
2018-02-10T09:07:50.309Z,5.10
2018-02-10T09:10:17.848Z,5.10
2018-02-10T09:12:45.282Z,5.10
2018-02-10T09:15:12.733Z,5.00
2018-02-10T09:17:40.158Z,5.00
2018-02-10T09:20:07.593Z,5.00
2018-02-10T09:22:35.035Z,5.00
2018-02-10T09:25:03.235Z,4.90
2018-02-10T09:27:31.572Z,4.80
2018-02-10T09:29:58.999Z,4.80
2018-02-10T09:32:26.521Z,4.80
2018-02-10T09:34:53.959Z,5.10
2018-02-10T09:37:21.404Z,5.40
2018-02-10T09:39:48.856Z,5.50
2018-02-10T09:42:16.295Z,5.60
2018-02-10T09:44:43.755Z,5.60
2018-02-10T09:47:11.188Z,5.70
2018-02-10T09:49:38.638Z,5.60
2018-02-10T09:52:06.070Z,5.50
2018-02-10T09:54:33.636Z,5.60
2018-02-10T09:57:01.081Z,5.70
2018-02-10T09:59:29.302Z,5.70
2018-02-10T10:01:56.744Z,5.70
2018-02-10T10:04:24.175Z,5.60
2018-02-10T10:06:51.612Z,5.50
2018-02-10T10:09:19.819Z,5.20
2018-02-10T10:11:47.279Z,5.10
2018-02-10T10:14:14.731Z,5.00
2018-02-10T10:16:42.256Z,5.30
2018-02-10T10:19:09.698Z,5.30
2018-02-10T10:21:37.124Z,5.00
2018-02-10T10:24:04.578Z,5.20
2018-02-10T10:26:32.047Z,5.60
2018-02-10T10:28:59.504Z,5.90
2018-02-10T10:31:26.935Z,6.00
2018-02-10T10:33:54.372Z,6.00
2018-02-10T10:36:21.839Z,5.70
2018-02-10T10:38:49.291Z,5.70
2018-02-10T10:41:16.719Z,5.80
2018-02-10T10:43:44.157Z,5.70
2018-02-10T10:46:11.594Z,5.70
2018-02-10T10:48:39.055Z,5.40
2018-02-10T10:51:06.487Z,5.50
2018-02-10T10:53:33.939Z,5.70
2018-02-10T10:56:01.392Z,5.70
2018-02-10T10:58:29.031Z,5.70
2018-02-10T11:00:57.247Z,5.60
2018-02-10T11:03:24.812Z,5.50
2018-02-10T11:05:52.252Z,5.90
2018-02-10T11:08:19.699Z,6.00
2018-02-10T11:10:47.135Z,5.80
2018-02-10T11:13:15.353Z,5.80
2018-02-10T11:15:42.799Z,5.70
2018-02-10T11:18:10.240Z,5.70
2018-02-10T11:20:37.706Z,5.70
2018-02-10T11:23:05.155Z,5.90
2018-02-10T11:25:32.589Z,5.90
2018-02-10T11:28:00.041Z,5.80
2018-02-10T11:30:27.485Z,5.80
2018-02-10T11:32:54.951Z,5.90
2018-02-10T11:35:22.375Z,6.20
2018-02-10T11:37:49.882Z,6.00
2018-02-10T11:40:17.284Z,6.30
2018-02-10T11:42:44.819Z,6.40
2018-02-10T11:45:12.264Z,6.40
2018-02-10T11:47:40.474Z,6.40
2018-02-10T11:50:07.907Z,6.40
2018-02-10T11:52:36.704Z,6.80
2018-02-10T11:55:02.789Z,6.60
2018-02-10T11:57:30.247Z,6.70
2018-02-10T11:59:57.687Z,6.70
2018-02-10T12:02:25.159Z,6.40
2018-02-10T12:04:52.607Z,6.00
2018-02-10T12:07:20.051Z,5.80
2018-02-10T12:09:47.502Z,5.80
2018-02-10T12:12:14.954Z,6.30
2018-02-10T12:14:42.379Z,6.50
2018-02-10T12:17:09.828Z,6.80
2018-02-10T12:19:37.271Z,6.80
2018-02-10T12:22:04.707Z,6.80
2018-02-10T12:24:32.175Z,6.50
2018-02-10T12:26:59.639Z,6.50
2018-02-10T12:29:27.087Z,6.20
2018-02-10T12:31:54.536Z,6.00
2018-02-10T12:34:22.177Z,6.20
2018-02-10T12:36:49.618Z,6.30
2018-02-10T12:39:17.050Z,5.90
2018-02-10T12:41:44.519Z,6.10
2018-02-10T12:44:11.987Z,6.60
2018-02-10T12:46:39.419Z,7.00
2018-02-10T12:49:12.659Z,7.30
2018-02-10T12:51:40.104Z,7.10
2018-02-10T12:54:07.551Z,7.30
2018-02-10T12:56:34.991Z,7.70
2018-02-10T12:59:02.423Z,7.60
2018-02-10T13:01:29.872Z,8.00
2018-02-10T13:03:57.324Z,8.20
2018-02-10T13:06:24.751Z,8.50
2018-02-10T13:08:52.213Z,8.40
2018-02-10T13:11:19.710Z,8.10
2018-02-10T13:13:47.152Z,8.10
2018-02-10T13:16:14.608Z,7.90
2018-02-10T13:18:42.048Z,7.60
2018-02-10T13:21:09.515Z,7.70
2018-02-10T13:23:36.974Z,7.70
2018-02-10T13:26:04.410Z,7.60
2018-02-10T13:28:31.856Z,7.70
2018-02-10T13:30:59.288Z,7.40
2018-02-10T13:33:26.818Z,7.30
2018-02-10T13:35:55.055Z,7.20
2018-02-10T13:38:22.526Z,7.20
2018-02-10T13:40:49.959Z,7.20
2018-02-10T13:43:17.419Z,7.10
2018-02-10T13:45:44.873Z,7.10
2018-02-10T13:48:24.120Z,7.00
2018-02-10T13:50:51.564Z,7.10
2018-02-10T13:53:19.022Z,7.10
2018-02-10T13:55:47.483Z,7.30
2018-02-10T13:58:14.935Z,7.40
2018-02-10T14:00:42.395Z,7.00
2018-02-10T14:03:09.829Z,6.80
2018-02-10T14:05:37.276Z,6.90
2018-02-10T14:08:04.728Z,6.60
2018-02-10T14:10:32.183Z,6.50
2018-02-10T14:12:59.643Z,6.30
2018-02-10T14:15:27.091Z,6.10
2018-02-10T14:17:54.586Z,6.10
2018-02-10T14:20:21.995Z,6.00
2018-02-10T14:22:49.471Z,5.90
2018-02-10T14:25:16.911Z,5.70
2018-02-10T14:27:44.367Z,5.70
2018-02-10T14:30:11.818Z,5.70
2018-02-10T14:32:39.271Z,5.80
2018-02-10T14:35:06.708Z,5.70
2018-02-10T14:37:34.163Z,5.70
2018-02-10T14:40:01.621Z,5.50
2018-02-10T14:42:29.114Z,5.70
2018-02-10T14:44:56.546Z,5.70
2018-02-10T14:47:24.004Z,5.50
2018-02-10T14:49:51.448Z,5.60
2018-02-10T14:52:18.916Z,5.30
2018-02-10T14:54:46.368Z,5.50
2018-02-10T14:57:13.831Z,5.50
2018-02-10T14:59:41.445Z,5.40
2018-02-10T15:02:09.732Z,5.50
2018-02-10T15:04:37.959Z,5.40
2018-02-10T15:07:05.419Z,5.30
2018-02-10T15:09:32.883Z,5.50
2018-02-10T15:12:00.334Z,5.60
2018-02-10T15:14:27.780Z,5.80
2018-02-10T15:16:55.231Z,5.50
2018-02-10T15:19:22.676Z,5.50
2018-02-10T15:21:50.111Z,5.40
2018-02-10T15:24:17.800Z,5.50
2018-02-10T15:26:45.270Z,5.50
2018-02-10T15:29:12.715Z,5.50
2018-02-10T15:31:51.856Z,5.30
2018-02-10T15:34:31.093Z,5.40
2018-02-10T15:36:58.555Z,5.60
2018-02-10T15:39:25.999Z,5.50
2018-02-10T15:41:53.444Z,5.30
2018-02-10T15:44:21.082Z,5.10
2018-02-10T15:46:48.531Z,5.00
2018-02-10T15:49:15.978Z,5.00
2018-02-10T15:51:43.421Z,5.10
2018-02-10T15:54:10.843Z,5.10
2018-02-10T15:56:38.323Z,5.20
2018-02-10T15:59:05.813Z,5.20
2018-02-10T16:01:33.252Z,5.20
2018-02-10T16:04:00.707Z,5.30
2018-02-10T16:06:28.195Z,5.30
2018-02-10T16:08:55.639Z,5.00
2018-02-10T16:11:23.097Z,4.80
2018-02-10T16:13:50.529Z,4.90
2018-02-10T16:16:17.956Z,4.90
2018-02-10T16:18:45.423Z,4.80
2018-02-10T16:21:12.861Z,4.70
2018-02-10T16:23:40.296Z,4.60
2018-02-10T16:26:07.751Z,4.70
2018-02-10T16:28:35.311Z,4.70
2018-02-10T16:31:02.757Z,4.50
2018-02-10T16:33:30.974Z,4.30
2018-02-10T16:35:58.422Z,4.30
2018-02-10T16:38:25.846Z,4.50
2018-02-10T16:40:54.063Z,4.70
2018-02-10T16:43:21.528Z,4.60
2018-02-10T16:45:48.985Z,4.50
2018-02-10T16:48:17.343Z,4.40
2018-02-10T16:50:44.858Z,4.40
2018-02-10T16:53:12.306Z,4.50
2018-02-10T16:55:39.737Z,4.20
2018-02-10T16:58:07.192Z,4.20
2018-02-10T17:00:34.647Z,4.10
2018-02-10T17:03:02.092Z,4.30
2018-02-10T17:05:29.550Z,4.50
2018-02-10T17:07:57.063Z,4.50
2018-02-10T17:10:24.487Z,4.50
2018-02-10T17:12:51.984Z,4.50
2018-02-10T17:15:19.444Z,4.50
2018-02-10T17:17:46.863Z,4.50
2018-02-10T17:20:14.347Z,4.40
2018-02-10T17:22:41.819Z,4.30
2018-02-10T17:25:09.264Z,4.30
2018-02-10T17:27:37.484Z,4.40
2018-02-10T17:30:04.954Z,4.40
2018-02-10T17:32:32.431Z,4.30
2018-02-10T17:35:00.018Z,4.40
2018-02-10T17:37:27.527Z,4.50
2018-02-10T17:39:55.745Z,4.50
2018-02-10T17:42:23.974Z,4.60
2018-02-10T17:44:51.448Z,4.50
2018-02-10T17:47:18.907Z,4.60
2018-02-10T17:49:46.383Z,4.60
2018-02-10T17:52:13.836Z,4.50
2018-02-10T17:54:41.276Z,4.50
2018-02-10T17:57:08.731Z,4.60
2018-02-10T17:59:36.184Z,4.50
2018-02-10T18:02:03.649Z,4.50
2018-02-10T18:04:31.108Z,4.50
2018-02-10T18:06:58.612Z,4.50
2018-02-10T18:09:26.069Z,4.40
2018-02-10T18:11:53.526Z,4.30
2018-02-10T18:14:20.963Z,4.40
2018-02-10T18:16:48.418Z,4.40
2018-02-10T18:19:16.794Z,4.30
2018-02-10T18:21:44.205Z,4.40
2018-02-10T18:24:11.704Z,4.40
2018-02-10T18:26:39.131Z,4.30
2018-02-10T18:29:06.615Z,4.30
2018-02-10T18:31:34.035Z,4.30
2018-02-10T18:34:01.507Z,4.20
2018-02-10T18:36:28.944Z,4.30
2018-02-10T18:38:56.404Z,4.00
2018-02-10T18:41:23.832Z,4.20
2018-02-10T18:43:51.279Z,4.10
2018-02-10T18:46:18.740Z,3.90
2018-02-10T18:48:46.196Z,3.90
2018-02-10T18:51:14.399Z,3.80
2018-02-10T18:53:41.833Z,3.70
2018-02-10T18:56:09.284Z,3.80
2018-02-10T18:58:37.492Z,3.90
2018-02-10T19:01:04.935Z,3.80
2018-02-10T19:03:32.524Z,3.80
2018-02-10T19:06:00.165Z,3.80
2018-02-10T19:08:27.641Z,3.80
2018-02-10T19:10:55.075Z,3.80
2018-02-10T19:13:22.527Z,3.80
2018-02-10T19:15:49.987Z,3.90
2018-02-10T19:18:17.427Z,4.00
2018-02-10T19:20:44.879Z,3.80
2018-02-10T19:23:13.096Z,3.80
2018-02-10T19:25:40.546Z,3.80
2018-02-10T19:28:07.979Z,3.90
2018-02-10T19:30:35.459Z,3.90
2018-02-10T19:33:02.858Z,4.00
2018-02-10T19:35:30.325Z,4.20
2018-02-10T19:37:57.743Z,4.30
2018-02-10T19:40:25.196Z,4.30
2018-02-10T19:42:52.655Z,4.30
2018-02-10T19:45:20.103Z,4.40
2018-02-10T19:47:47.619Z,4.40
2018-02-10T19:50:15.069Z,4.50
2018-02-10T19:52:42.523Z,4.50
2018-02-10T19:55:09.942Z,4.50
2018-02-10T19:57:37.396Z,4.40
2018-02-10T20:00:04.834Z,4.30
2018-02-10T20:02:32.273Z,4.30
2018-02-10T20:04:59.741Z,4.40
2018-02-10T20:07:27.175Z,4.40
2018-02-10T20:09:55.426Z,4.30
2018-02-10T20:12:22.852Z,4.30
2018-02-10T20:14:50.319Z,4.40
2018-02-10T20:17:17.769Z,4.40
2018-02-10T20:19:45.207Z,4.50
2018-02-10T20:22:12.638Z,4.40
2018-02-10T20:24:40.863Z,4.20
2018-02-10T20:27:08.305Z,4.10
2018-02-10T20:29:35.743Z,4.10
2018-02-10T20:32:03.428Z,3.80
2018-02-10T20:34:30.858Z,3.60
2018-02-10T20:36:58.319Z,3.60
2018-02-10T20:39:25.802Z,3.60
2018-02-10T20:41:53.252Z,3.70
2018-02-10T20:44:20.711Z,3.80
2018-02-10T20:46:48.147Z,3.60
2018-02-10T20:49:15.586Z,3.80
2018-02-10T20:51:43.907Z,3.50
2018-02-10T20:54:11.427Z,3.50
2018-02-10T20:56:38.862Z,3.40
2018-02-10T20:59:06.312Z,3.50
2018-02-10T21:01:33.774Z,3.60
2018-02-10T21:04:01.233Z,3.70
2018-02-10T21:06:28.667Z,3.80
2018-02-10T21:08:56.136Z,3.60
2018-02-10T21:11:23.547Z,3.70
2018-02-10T21:13:51.003Z,3.70
2018-02-10T21:16:18.549Z,3.60
2018-02-10T21:18:45.980Z,3.50
2018-02-10T21:21:13.431Z,3.40
2018-02-10T21:23:40.860Z,3.40
2018-02-10T21:26:08.314Z,3.60
2018-02-10T21:28:35.774Z,3.50
2018-02-10T21:31:03.250Z,3.70
2018-02-10T21:33:30.671Z,3.90
2018-02-10T21:35:58.132Z,3.80
2018-02-10T21:38:25.666Z,3.90
2018-02-10T21:40:53.099Z,3.80
2018-02-10T21:43:20.548Z,3.70
2018-02-10T21:45:47.987Z,3.60
2018-02-10T21:48:15.419Z,3.80
2018-02-10T21:50:42.877Z,3.90
2018-02-10T21:53:10.354Z,3.60
2018-02-10T21:55:37.814Z,3.50
2018-02-10T21:58:05.259Z,3.60
2018-02-10T22:00:32.796Z,3.70
2018-02-10T22:03:00.282Z,3.70
2018-02-10T22:05:27.719Z,3.70
2018-02-10T22:07:55.152Z,3.50
2018-02-10T22:10:22.629Z,3.50
2018-02-10T22:12:50.058Z,3.40
2018-02-10T22:15:17.751Z,3.50
2018-02-10T22:17:45.196Z,3.50
2018-02-10T22:20:12.651Z,3.60
2018-02-10T22:22:40.215Z,3.50
2018-02-10T22:25:07.659Z,3.40
2018-02-10T22:27:35.116Z,3.40
2018-02-10T22:30:02.567Z,3.50
2018-02-10T22:32:30.026Z,3.50
2018-02-10T22:34:57.515Z,3.50
2018-02-10T22:37:24.945Z,3.50
2018-02-10T22:39:52.395Z,3.50
2018-02-10T22:42:19.849Z,3.50
2018-02-10T22:44:47.293Z,3.50
2018-02-10T22:47:14.749Z,3.50
2018-02-10T22:49:42.205Z,3.50
2018-02-10T22:52:09.662Z,3.40
2018-02-10T22:54:37.169Z,3.50
2018-02-10T22:57:04.602Z,3.50
2018-02-10T22:59:32.050Z,3.50
2018-02-10T23:01:59.510Z,3.40
2018-02-10T23:04:27.309Z,3.30
2018-02-10T23:06:54.755Z,3.40
2018-02-10T23:09:22.207Z,3.50
2018-02-10T23:11:49.657Z,3.50
2018-02-10T23:14:17.179Z,3.50
2018-02-10T23:16:44.620Z,3.30
2018-02-10T23:19:12.078Z,3.30
2018-02-10T23:21:39.533Z,3.20
2018-02-10T23:24:06.996Z,3.40
2018-02-10T23:26:34.464Z,3.30
2018-02-10T23:29:01.924Z,3.40
2018-02-10T23:31:29.368Z,3.30
2018-02-10T23:33:56.830Z,3.40
2018-02-10T23:36:24.453Z,3.50
2018-02-10T23:38:51.891Z,3.60
2018-02-10T23:41:19.334Z,3.50
2018-02-10T23:43:46.771Z,3.50
2018-02-10T23:46:14.996Z,3.10
2018-02-10T23:48:42.455Z,3.10
2018-02-10T23:51:09.923Z,3.30
2018-02-10T23:53:37.379Z,3.40
2018-02-10T23:56:04.814Z,3.50
2018-02-10T23:58:32.290Z,3.50
